Time;durP1;ratioP1;P1;durP2;ratioP2;P2;SDS_P1;SDS_P2;PMS_P1;PMS_P2;Temp;Humidity;BMP_temperature;BMP_pressure;BME280_temperature;BME280_humidity;BME280_pressure;Samples;Min_cycle;Max_cycle;Signal;HPM_P1;HPM_P2
2022/08/28 00:00:55;;;;;;;13.47;6.20;;;25.10;99.90;;;;;;5083034;28;20456;-93
2022/08/28 00:03:21;;;;;;;9.50;6.00;;;25.10;99.90;;;;;;5080728;28;20172;-94
2022/08/28 00:05:47;;;;;;;12.03;6.20;;;25.00;99.90;;;;;;5080337;28;20822;-93
2022/08/28 00:08:15;;;;;;;9.43;5.87;;;25.10;99.90;;;;;;5080951;28;20472;-94
2022/08/28 00:10:42;;;;;;;7.20;5.97;;;25.00;99.90;;;;;;5087396;28;20200;-94
2022/08/28 00:13:14;;;;;;;6.97;6.27;;;25.00;99.90;;;;;;5082548;28;20407;-95
2022/08/28 00:15:40;;;;;;;7.83;6.07;;;25.00;99.90;;;;;;5085738;28;20508;-93
2022/08/28 00:18:06;;;;;;;8.67;6.43;;;25.00;99.90;;;;;;5080109;28;20408;-93
2022/08/28 00:20:33;;;;;;;9.13;6.50;;;24.90;99.90;;;;;;5080452;28;20440;-94
2022/08/28 00:22:59;;;;;;;8.83;7.20;;;24.90;99.90;;;;;;5080165;28;20427;-94
2022/08/28 00:25:27;;;;;;;11.40;6.70;;;24.90;99.90;;;;;;5080456;28;20459;-93
2022/08/28 00:27:59;;;;;;;9.40;6.90;;;24.90;99.90;;;;;;5080612;28;20501;-94
2022/08/28 00:30:31;;;;;;;6.30;5.70;;;24.80;99.90;;;;;;5081175;28;20447;-94
2022/08/28 00:33:10;;;;;;;7.17;6.37;;;24.80;99.90;;;;;;5087086;28;20405;-94
2022/08/28 00:35:39;;;;;;;13.03;7.50;;;24.80;99.90;;;;;;5080087;28;20518;-93
2022/08/28 00:38:05;;;;;;;8.20;6.40;;;24.80;99.90;;;;;;5079821;28;20417;-94
2022/08/28 00:40:31;;;;;;;11.37;6.60;;;24.70;99.90;;;;;;5079816;28;20455;-94
2022/08/28 00:42:59;;;;;;;7.77;6.47;;;24.70;99.90;;;;;;5079353;28;20404;-93
2022/08/28 00:45:25;;;;;;;8.70;7.13;;;24.70;99.90;;;;;;5097688;28;20211;-94
2022/08/28 00:47:51;;;;;;;9.47;6.20;;;24.70;99.90;;;;;;5079465;28;20408;-93
2022/08/28 00:50:20;;;;;;;7.17;6.23;;;24.70;99.90;;;;;;5097068;28;20509;-94
2022/08/28 00:52:49;;;;;;;11.27;6.70;;;24.60;99.90;;;;;;5097421;28;20961;-94
2022/08/28 00:55:21;;;;;;;9.07;6.63;;;24.60;99.90;;;;;;5079346;28;20464;-93
2022/08/28 00:57:51;;;;;;;16.87;7.07;;;24.60;99.90;;;;;;5079218;28;20492;-94
2022/08/28 01:00:28;;;;;;;7.03;6.20;;;24.60;99.90;;;;;;5080008;28;20484;-94
2022/08/28 01:02:54;;;;;;;9.03;6.50;;;24.60;99.90;;;;;;5082145;28;20411;-93
2022/08/28 01:05:20;;;;;;;8.93;6.40;;;24.60;99.90;;;;;;5079490;28;20485;-93
2022/08/28 01:07:47;;;;;;;7.13;6.43;;;24.50;99.90;;;;;;5079484;28;20415;-93
2022/08/28 01:10:17;;;;;;;6.73;6.03;;;24.60;99.90;;;;;;5079426;28;20454;-93
2022/08/28 01:12:44;;;;;;;11.40;6.47;;;24.60;99.90;;;;;;5079582;28;20423;-93
2022/08/28 01:15:13;;;;;;;9.37;6.63;;;24.60;99.90;;;;;;5079113;28;20483;-94
2022/08/28 01:17:47;;;;;;;8.17;5.53;;;24.60;99.90;;;;;;5079102;28;20423;-94
2022/08/28 01:20:17;;;;;;;8.20;5.77;;;24.60;99.90;;;;;;5078949;28;20451;-93
2022/08/28 01:23:20;;;;;;;9.80;6.00;;;24.70;99.90;;;;;;5078702;28;20415;-94
2022/08/28 01:25:45;;;;;;;7.47;6.07;;;24.70;99.90;;;;;;5078925;28;20494;-93
2022/08/28 01:28:12;;;;;;;7.93;5.77;;;24.70;99.90;;;;;;5078801;28;20408;-94
2022/08/28 01:30:44;;;;;;;11.53;7.10;;;24.70;99.90;;;;;;5078981;28;20201;-95
2022/08/28 01:33:10;;;;;;;8.60;6.13;;;24.70;99.90;;;;;;5078604;28;20514;-95
2022/08/28 01:35:41;;;;;;;6.40;5.80;;;24.70;99.90;;;;;;5079879;28;20919;-94
2022/08/28 01:38:07;;;;;;;8.30;6.03;;;24.80;99.90;;;;;;5079708;28;20412;-94
2022/08/28 01:40:36;;;;;;;9.17;6.70;;;24.80;99.90;;;;;;5097150;28;20443;-93
2022/08/28 01:43:11;;;;;;;10.80;7.10;;;24.80;99.90;;;;;;5097085;28;20416;-94
2022/08/28 01:45:38;;;;;;;7.10;6.20;;;24.80;99.90;;;;;;5079953;28;20469;-93
2022/08/28 01:48:05;;;;;;;10.77;6.60;;;24.90;99.90;;;;;;5097648;28;20420;-94
2022/08/28 01:50:32;;;;;;;6.77;6.10;;;24.80;99.90;;;;;;5079445;28;20480;-94
2022/08/28 01:52:58;;;;;;;9.13;6.60;;;24.90;99.90;;;;;;5098859;28;20400;-93
2022/08/28 01:55:24;;;;;;;7.77;6.10;;;24.90;99.90;;;;;;5081101;28;20563;-95
2022/08/28 01:57:52;;;;;;;9.07;6.60;;;24.90;99.90;;;;;;5080734;28;20459;-94
2022/08/28 02:00:19;;;;;;;10.10;6.90;;;24.90;99.90;;;;;;5081177;28;20294;-94
2022/08/28 02:02:47;;;;;;;9.50;7.10;;;24.90;99.90;;;;;;5092077;28;20413;-93
2022/08/28 02:05:13;;;;;;;9.77;6.70;;;24.90;99.90;;;;;;5077820;28;20448;-95
2022/08/28 02:07:39;;;;;;;9.93;7.90;;;24.90;99.90;;;;;;5077281;28;20408;-94
2022/08/28 02:10:07;;;;;;;10.27;6.90;;;24.90;99.90;;;;;;5078145;28;20456;-93
2022/08/28 02:12:33;;;;;;;6.80;6.20;;;24.90;99.90;;;;;;5083103;28;20416;-94
2022/08/28 02:14:58;;;;;;;12.20;7.13;;;24.90;99.90;;;;;;5078869;28;20830;-93
2022/08/28 02:17:24;;;;;;;10.03;7.27;;;24.90;99.90;;;;;;5078622;28;20527;-93
2022/08/28 02:19:50;;;;;;;12.80;6.87;;;24.90;99.90;;;;;;5078347;28;20211;-93
2022/08/28 02:22:16;;;;;;;12.13;6.90;;;24.90;99.90;;;;;;5078830;28;20589;-94
2022/08/28 02:24:42;;;;;;;7.20;5.93;;;24.90;99.90;;;;;;5078363;28;20475;-94
2022/08/28 02:27:09;;;;;;;11.10;6.33;;;24.90;99.90;;;;;;5078946;28;20416;-94
2022/08/28 02:29:34;;;;;;;8.20;6.60;;;24.90;99.90;;;;;;5078781;28;20264;-93
2022/08/28 02:32:00;;;;;;;10.03;6.90;;;24.80;99.90;;;;;;5078590;28;20420;-93
2022/08/28 02:34:25;;;;;;;7.93;6.70;;;24.80;99.90;;;;;;5096766;28;20203;-93
2022/08/28 02:36:51;;;;;;;7.93;7.13;;;24.80;99.90;;;;;;5079183;28;20698;-93
2022/08/28 02:39:17;;;;;;;12.90;7.80;;;24.80;99.90;;;;;;5097060;28;20208;-94
2022/08/28 02:41:43;;;;;;;10.13;7.80;;;24.70;99.90;;;;;;5078869;28;20240;-93
2022/08/28 02:44:09;;;;;;;8.67;7.40;;;24.70;99.90;;;;;;5097300;28;20258;-94
2022/08/28 02:46:34;;;;;;;9.83;7.47;;;24.70;99.90;;;;;;5097264;28;20424;-93
2022/08/28 02:49:00;;;;;;;9.90;7.20;;;24.70;99.90;;;;;;5091226;28;20186;-93
2022/08/28 02:51:32;;;;;;;12.90;7.20;;;24.70;99.90;;;;;;5094864;28;20228;-94
2022/08/28 02:53:58;;;;;;;11.03;7.80;;;24.60;99.90;;;;;;5105505;28;20171;-93
2022/08/28 02:56:23;;;;;;;10.97;6.70;;;24.60;99.90;;;;;;5103376;28;20987;-94
2022/08/28 02:58:49;;;;;;;8.23;6.80;;;24.50;99.90;;;;;;5094906;28;20424;-94
2022/08/28 03:01:15;;;;;;;8.93;7.30;;;24.50;99.90;;;;;;5096545;28;20181;-93
2022/08/28 03:03:42;;;;;;;11.50;7.27;;;24.50;99.90;;;;;;5101192;28;20171;-94
2022/08/28 03:06:08;;;;;;;10.60;7.70;;;24.50;99.90;;;;;;5079746;28;20241;-93
2022/08/28 03:08:34;;;;;;;11.23;7.87;;;24.40;99.90;;;;;;5077860;28;20788;-94
2022/08/28 03:10:59;;;;;;;8.43;7.30;;;24.40;99.90;;;;;;5078111;28;20440;-94
2022/08/28 03:13:26;;;;;;;13.40;8.30;;;24.40;99.90;;;;;;5077756;28;20556;-93
2022/08/28 03:15:51;;;;;;;10.67;8.00;;;24.40;99.90;;;;;;5077811;28;20635;-94
2022/08/28 03:18:18;;;;;;;10.27;7.00;;;24.40;99.90;;;;;;5078651;28;20416;-94
2022/08/28 03:20:44;;;;;;;11.30;8.00;;;24.40;99.90;;;;;;5081963;28;20202;-94
2022/08/28 03:23:26;;;;;;;11.60;7.70;;;24.40;99.90;;;;;;5081500;28;20420;-93
2022/08/28 03:25:58;;;;;;;10.30;7.50;;;24.30;99.90;;;;;;5081999;28;20453;-93
2022/08/28 03:28:27;;;;;;;16.70;7.50;;;24.30;99.90;;;;;;5083864;28;20427;-94
2022/08/28 03:30:53;;;;;;;10.10;7.60;;;24.30;99.90;;;;;;5082117;28;20436;-94
2022/08/28 03:33:19;;;;;;;8.47;7.10;;;24.30;99.90;;;;;;5081697;28;20436;-94
2022/08/28 03:35:45;;;;;;;11.77;7.57;;;24.30;99.90;;;;;;5082302;28;20480;-94
2022/08/28 03:38:11;;;;;;;11.67;8.00;;;24.30;99.90;;;;;;5082828;28;20420;-94
2022/08/28 03:40:41;;;;;;;9.90;8.20;;;24.30;99.90;;;;;;5082870;28;20443;-94
2022/08/28 03:43:10;;;;;;;8.67;7.30;;;24.20;99.90;;;;;;5082433;28;20183;-94
2022/08/28 03:45:36;;;;;;;11.20;8.13;;;24.30;99.90;;;;;;5081781;28;20547;-94
2022/08/28 03:48:03;;;;;;;12.60;8.03;;;24.20;99.90;;;;;;5108554;28;20905;-94
2022/08/28 03:50:29;;;;;;;14.77;7.97;;;24.20;99.90;;;;;;5082145;28;20287;-94
2022/08/28 03:52:55;;;;;;;11.80;8.10;;;24.10;99.90;;;;;;5082283;28;20420;-94
2022/08/28 03:55:21;;;;;;;11.40;8.60;;;24.10;99.90;;;;;;5085552;28;20959;-93
2022/08/28 03:57:47;;;;;;;9.17;8.27;;;24.10;99.90;;;;;;5082093;28;20645;-94
2022/08/28 04:00:13;;;;;;;12.50;8.60;;;24.10;99.90;;;;;;5081098;28;20458;-93
2022/08/28 04:02:44;;;;;;;9.97;8.97;;;24.00;99.90;;;;;;5080712;28;20183;-93
2022/08/28 04:05:12;;;;;;;16.13;9.63;;;24.00;99.90;;;;;;5080391;28;20454;-93
2022/08/28 04:07:38;;;;;;;12.43;9.47;;;24.00;99.90;;;;;;5080584;28;20940;-94
2022/08/28 04:10:05;;;;;;;18.00;9.77;;;24.00;99.90;;;;;;5081930;28;20494;-94
2022/08/28 04:12:31;;;;;;;15.30;9.20;;;23.90;99.90;;;;;;5099272;28;20400;-93
2022/08/28 04:14:57;;;;;;;11.10;8.63;;;23.90;99.90;;;;;;5081207;28;20586;-93
2022/08/28 04:17:23;;;;;;;21.70;9.47;;;23.90;99.90;;;;;;5081199;28;20408;-94
2022/08/28 04:19:52;;;;;;;10.67;8.43;;;23.90;99.90;;;;;;5080283;28;20318;-93
2022/08/28 04:22:18;;;;;;;15.23;10.40;;;23.90;99.90;;;;;;5080054;28;20413;-94
2022/08/28 04:24:43;;;;;;;13.27;10.30;;;23.90;99.90;;;;;;5098432;28;20552;-94
2022/08/28 04:27:09;;;;;;;15.37;10.20;;;23.80;99.90;;;;;;5080485;28;20659;-93
2022/08/28 04:29:35;;;;;;;11.03;8.50;;;23.80;99.90;;;;;;5080251;28;20200;-94
2022/08/28 04:32:01;;;;;;;14.70;9.10;;;23.80;99.90;;;;;;5081205;28;20635;-94
2022/08/28 04:34:27;;;;;;;11.73;9.20;;;23.80;99.90;;;;;;5099149;28;20285;-94
2022/08/28 04:36:53;;;;;;;9.83;7.63;;;23.80;99.90;;;;;;5081088;28;20551;-94
2022/08/28 04:39:19;;;;;;;12.83;9.40;;;23.80;99.90;;;;;;5081090;28;20348;-93
2022/08/28 04:41:44;;;;;;;13.00;8.90;;;23.80;99.90;;;;;;5098819;28;20439;-92
2022/08/28 04:44:10;;;;;;;15.93;10.27;;;23.80;99.90;;;;;;5079860;28;20203;-93
2022/08/28 04:46:36;;;;;;;14.00;9.53;;;23.80;99.90;;;;;;5080632;28;20924;-93
2022/08/28 04:49:03;;;;;;;14.20;9.47;;;23.80;99.90;;;;;;5079075;28;20187;-94
2022/08/28 04:51:29;;;;;;;14.27;9.60;;;23.80;99.90;;;;;;5079643;28;20186;-94
2022/08/28 04:53:56;;;;;;;11.97;9.03;;;23.80;99.90;;;;;;5097496;28;20421;-94
2022/08/28 04:56:22;;;;;;;11.57;8.60;;;23.80;99.90;;;;;;5097395;28;20993;-94
2022/08/28 04:58:48;;;;;;;11.33;8.80;;;23.90;99.90;;;;;;5079746;28;20411;-93
2022/08/28 05:01:18;;;;;;;13.70;9.50;;;23.90;99.90;;;;;;5097344;28;20202;-94
2022/08/28 05:03:45;;;;;;;18.40;10.10;;;23.90;99.90;;;;;;5083572;28;20400;-93
2022/08/28 05:06:13;;;;;;;14.13;9.03;;;24.00;99.90;;;;;;5083241;28;20426;-94
2022/08/28 05:08:39;;;;;;;14.33;8.73;;;24.00;99.90;;;;;;5079489;28;20514;-93
2022/08/28 05:11:15;;;;;;;11.67;8.83;;;24.00;99.90;;;;;;5079966;28;20439;-93
2022/08/28 05:13:42;;;;;;;17.90;9.37;;;24.00;99.90;;;;;;5080293;28;20407;-94
2022/08/28 05:16:07;;;;;;;15.70;8.70;;;24.00;99.90;;;;;;5081306;28;21052;-93
2022/08/28 05:18:33;;;;;;;15.33;8.57;;;24.10;99.90;;;;;;5084318;28;20424;-94
2022/08/28 05:21:00;;;;;;;11.63;8.20;;;24.10;99.90;;;;;;5103869;28;20224;-94
2022/08/28 05:23:27;;;;;;;20.30;9.60;;;24.10;99.90;;;;;;5079639;28;20272;-94
2022/08/28 05:25:53;;;;;;;11.47;8.50;;;24.20;99.90;;;;;;5079308;28;20456;-93
2022/08/28 05:28:19;;;;;;;8.83;7.93;;;24.20;99.90;;;;;;5079484;28;20468;-94
2022/08/28 05:30:45;;;;;;;12.00;8.90;;;24.20;99.90;;;;;;5079361;28;20455;-94
2022/08/28 05:33:14;;;;;;;16.50;8.93;;;24.20;99.90;;;;;;5079333;28;20208;-94
2022/08/28 05:35:43;;;;;;;12.17;9.07;;;24.30;99.90;;;;;;5079060;28;20475;-95
2022/08/28 05:38:09;;;;;;;12.10;9.20;;;24.30;99.90;;;;;;5079329;28;20410;-93
2022/08/28 05:40:44;;;;;;;9.83;7.97;;;24.30;99.90;;;;;;5078952;28;20508;-94
2022/08/28 05:43:12;;;;;;;12.07;7.83;;;24.40;99.90;;;;;;5078269;28;20912;-94
2022/08/28 05:45:38;;;;;;;10.10;7.27;;;24.40;99.90;;;;;;5100236;28;20942;-94
2022/08/28 05:48:04;;;;;;;10.40;7.47;;;24.40;99.90;;;;;;5097169;28;20461;-93
2022/08/28 05:50:30;;;;;;;11.30;8.07;;;24.50;99.90;;;;;;5079418;28;20231;-93
2022/08/28 05:52:56;;;;;;;11.87;8.67;;;24.50;99.90;;;;;;5101324;28;20452;-93
2022/08/28 05:55:22;;;;;;;11.93;8.40;;;24.60;99.90;;;;;;5096571;28;20472;-94
2022/08/28 05:57:48;;;;;;;10.50;8.33;;;24.60;99.90;;;;;;5077597;28;20419;-93
2022/08/28 06:00:14;;;;;;;10.40;8.57;;;24.60;99.90;;;;;;5077936;28;20559;-93
2022/08/28 06:02:40;;;;;;;9.90;8.20;;;24.60;99.90;;;;;;5077695;28;20188;-94
2022/08/28 06:05:07;;;;;;;11.30;8.30;;;24.70;99.90;;;;;;5077706;28;20456;-93
2022/08/28 06:07:33;;;;;;;11.20;9.83;;;24.70;99.90;;;;;;5077850;28;20415;-93
2022/08/28 06:09:59;;;;;;;11.00;8.63;;;24.70;99.90;;;;;;5095949;28;20955;-93
2022/08/28 06:12:24;;;;;;;12.60;7.67;;;24.80;99.90;;;;;;5077651;28;20207;-94
2022/08/28 06:14:50;;;;;;;15.03;8.50;;;24.80;99.90;;;;;;5077542;28;20214;-94
2022/08/28 06:17:15;;;;;;;10.57;8.37;;;24.90;99.90;;;;;;5077784;28;20222;-94
2022/08/28 06:19:41;;;;;;;11.10;7.43;;;24.90;99.90;;;;;;5096093;28;20274;-94
2022/08/28 06:22:08;;;;;;;11.70;8.27;;;25.00;99.90;;;;;;5078068;28;20188;-93
2022/08/28 06:24:34;;;;;;;12.70;7.10;;;25.00;99.90;;;;;;5078709;28;20196;-92
2022/08/28 06:27:00;;;;;;;8.80;6.90;;;25.10;99.90;;;;;;5096545;28;20417;-93
2022/08/28 06:29:27;;;;;;;11.73;7.90;;;25.10;99.90;;;;;;5078757;28;20444;-94
2022/08/28 06:31:55;;;;;;;10.70;7.17;;;25.10;99.90;;;;;;5078489;28;20184;-93
2022/08/28 06:34:21;;;;;;;10.00;7.80;;;25.20;99.90;;;;;;5078092;28;20536;-93
2022/08/28 06:36:47;;;;;;;8.93;7.00;;;25.20;99.90;;;;;;5078194;28;20567;-92
2022/08/28 06:39:13;;;;;;;8.43;7.50;;;25.30;99.90;;;;;;5078149;28;20443;-93
2022/08/28 06:41:42;;;;;;;12.20;7.10;;;25.30;99.90;;;;;;5084514;28;20180;-91
2022/08/28 06:44:17;;;;;;;15.00;8.13;;;25.40;99.90;;;;;;5078890;28;20420;-93
2022/08/28 06:46:43;;;;;;;12.10;8.30;;;25.50;99.90;;;;;;5078692;28;20784;-94
2022/08/28 06:49:10;;;;;;;9.63;7.33;;;25.50;99.90;;;;;;5078396;28;20421;-93
2022/08/28 06:51:37;;;;;;;9.43;7.13;;;25.60;99.90;;;;;;5078557;28;20503;-94
2022/08/28 06:54:03;;;;;;;8.80;7.47;;;25.60;99.90;;;;;;5078310;28;20455;-94
2022/08/28 06:56:30;;;;;;;8.97;7.00;;;25.70;99.90;;;;;;5078393;28;20473;-93
2022/08/28 06:58:57;;;;;;;7.87;6.80;;;25.70;99.90;;;;;;5078527;28;20427;-94
2022/08/28 07:01:27;;;;;;;11.67;7.33;;;25.80;99.90;;;;;;5078051;28;20419;-94
2022/08/28 07:03:55;;;;;;;7.87;7.00;;;25.80;99.90;;;;;;5079006;28;20421;-94
2022/08/28 07:06:22;;;;;;;6.97;6.27;;;25.90;99.90;;;;;;5081419;28;20412;-93
2022/08/28 07:08:48;;;;;;;7.40;6.13;;;26.00;99.90;;;;;;5077080;28;20815;-93
2022/08/28 07:11:24;;;;;;;8.37;6.53;;;26.10;99.90;;;;;;5076878;28;20540;-94
2022/08/28 07:13:54;;;;;;;11.43;6.60;;;26.20;99.90;;;;;;5076632;28;20401;-94
2022/08/28 07:16:21;;;;;;;8.80;6.20;;;26.20;99.90;;;;;;5077016;28;20539;-93
2022/08/28 07:18:47;;;;;;;8.17;6.53;;;26.30;99.90;;;;;;5095094;28;20459;-94
2022/08/28 07:21:13;;;;;;;10.97;7.33;;;26.40;99.90;;;;;;5095102;28;20504;-94
2022/08/28 07:23:41;;;;;;;8.60;6.33;;;26.40;99.90;;;;;;5077296;28;20233;-94
2022/08/28 07:26:15;;;;;;;11.93;7.30;;;26.50;99.90;;;;;;5080275;28;20680;-94
2022/08/28 07:28:41;;;;;;;10.03;7.00;;;26.60;99.90;;;;;;5081631;28;20431;-93
2022/08/28 07:31:10;;;;;;;8.03;6.93;;;26.60;99.90;;;;;;5080746;28;20453;-93
2022/08/28 07:33:38;;;;;;;8.13;7.33;;;26.70;99.90;;;;;;5097554;28;20168;-94
2022/08/28 07:36:06;;;;;;;8.83;6.67;;;26.80;99.90;;;;;;5096544;28;20542;-93
2022/08/28 07:38:32;;;;;;;7.57;6.47;;;26.90;99.90;;;;;;5078345;28;20409;-94
2022/08/28 07:40:58;;;;;;;10.03;6.60;;;26.90;99.90;;;;;;5078565;28;20437;-94
2022/08/28 07:46:10;;;;;;;7.67;5.80;;;27.10;99.90;;;;;;5096069;28;20219;-94
2022/08/28 07:48:37;;;;;;;10.40;6.63;;;27.10;99.90;;;;;;5078137;28;20409;-94
2022/08/28 07:51:05;;;;;;;8.87;6.67;;;27.20;99.90;;;;;;5078003;28;20838;-94
2022/08/28 07:53:31;;;;;;;8.23;7.00;;;27.20;99.90;;;;;;5077932;28;20409;-94
2022/08/28 07:55:57;;;;;;;7.73;6.50;;;27.30;99.90;;;;;;5095909;28;20484;-93
2022/08/28 07:58:25;;;;;;;11.80;6.43;;;27.40;99.90;;;;;;5078387;28;20425;-94
2022/08/28 08:00:52;;;;;;;9.67;7.10;;;27.40;99.90;;;;;;5077908;28;20459;-94
2022/08/28 08:03:18;;;;;;;11.53;7.40;;;27.50;99.90;;;;;;5078845;28;20413;-94
2022/08/28 08:05:56;;;;;;;9.23;7.10;;;27.60;99.90;;;;;;5085903;28;20518;-94
2022/08/28 08:08:23;;;;;;;7.23;6.20;;;27.70;99.90;;;;;;5080281;28;20417;-94
2022/08/28 08:11:01;;;;;;;9.30;6.90;;;27.80;99.90;;;;;;5098493;28;20794;-94
2022/08/28 08:13:28;;;;;;;7.40;6.20;;;27.80;99.90;;;;;;5083783;28;20417;-93
2022/08/28 08:16:02;;;;;;;8.60;6.00;;;28.00;99.90;;;;;;5082364;28;20484;-93
2022/08/28 08:18:27;;;;;;;7.70;6.43;;;28.00;99.90;;;;;;5080679;28;20939;-94
2022/08/28 08:20:53;;;;;;;10.20;6.80;;;28.10;99.90;;;;;;5079937;28;20533;-93
2022/08/28 08:23:19;;;;;;;9.37;7.50;;;28.10;99.90;;;;;;5080932;28;20188;-93
2022/08/28 08:25:59;;;;;;;10.03;7.00;;;28.20;99.90;;;;;;5098459;28;20228;-94
2022/08/28 08:28:25;;;;;;;9.20;6.90;;;28.30;99.90;;;;;;5080498;28;20512;-94
2022/08/28 08:31:12;;;;;;;18.43;6.80;;;28.40;99.90;;;;;;5079708;28;20446;-94
2022/08/28 08:33:41;;;;;;;8.00;7.20;;;28.50;99.90;;;;;;5097553;28;20399;-94
2022/08/28 08:36:08;;;;;;;8.17;6.33;;;28.60;99.90;;;;;;5079460;28;20524;-94
2022/08/28 08:38:35;;;;;;;7.80;6.03;;;28.70;99.90;;;;;;5079884;28;20410;-94
2022/08/28 08:41:06;;;;;;;7.37;6.67;;;28.80;99.90;;;;;;5080037;28;20455;-94
2022/08/28 08:43:46;;;;;;;9.03;6.80;;;28.90;99.90;;;;;;5079731;28;20406;-93
2022/08/28 08:46:11;;;;;;;7.60;6.43;;;29.00;99.90;;;;;;5079479;28;20453;-94
2022/08/28 08:48:40;;;;;;;10.70;6.60;;;29.10;99.90;;;;;;5097619;28;20779;-94
2022/08/28 08:51:19;;;;;;;11.20;6.90;;;29.20;99.90;;;;;;5079371;28;20237;-94
2022/08/28 08:54:09;;;;;;;6.07;5.50;;;29.80;99.90;;;;;;5097237;28;20374;-94
2022/08/28 08:56:35;;;;;;;12.60;6.60;;;30.50;99.90;;;;;;5079417;28;20473;-95
2022/08/28 08:59:06;;;;;;;11.13;6.40;;;31.00;99.90;;;;;;5079213;28;20531;-94
2022/08/28 09:02:13;;;;;;;8.10;6.70;;;31.30;99.90;;;;;;5079562;28;20438;-95
2022/08/28 09:05:05;;;;;;;7.50;6.67;;;31.40;99.90;;;;;;5046894;28;20452;-93
2022/08/28 09:07:55;;;;;;;9.00;6.70;;;31.40;99.60;;;;;;5098003;28;20420;-95
2022/08/28 09:10:23;;;;;;;8.13;6.43;;;31.30;99.70;;;;;;5080985;28;20515;-94
2022/08/28 09:13:23;;;;;;;8.70;6.43;;;31.20;99.80;;;;;;5079961;28;20936;-94
2022/08/28 09:15:49;;;;;;;7.70;6.23;;;31.10;99.90;;;;;;5079139;28;20476;-94
2022/08/28 09:18:25;;;;;;;11.80;7.10;;;31.00;99.40;;;;;;5079314;28;20454;-94
2022/08/28 09:20:57;;;;;;;7.40;6.70;;;30.90;99.50;;;;;;5079225;28;20448;-94
2022/08/28 09:23:25;;;;;;;7.33;6.60;;;30.80;99.60;;;;;;5079055;28;20474;-93
2022/08/28 09:26:00;;;;;;;9.60;7.20;;;30.70;99.40;;;;;;5097420;28;20445;-94
2022/08/28 09:28:35;;;;;;;8.20;7.17;;;30.70;99.30;;;;;;5097901;28;20994;-94
2022/08/28 09:31:03;;;;;;;7.97;6.43;;;30.60;98.70;;;;;;5080980;28;20467;-94
2022/08/28 09:33:33;;;;;;;14.20;7.23;;;30.50;99.20;;;;;;5097098;28;20422;-93
2022/08/28 09:36:29;;;;;;;8.57;7.30;;;30.50;99.10;;;;;;5079825;28;21004;-94
2022/08/28 09:39:18;;;;;;;9.80;7.43;;;30.50;99.20;;;;;;5098607;28;20385;-94
2022/08/28 09:44:55;;;;;;;7.87;7.07;;;30.40;99.80;;;;;;5098054;28;20471;-94
2022/08/28 09:47:38;;;;;;;8.90;8.00;;;30.50;99.90;;;;;;5086362;28;20465;-95
2022/08/28 09:50:27;;;;;;;8.33;7.00;;;30.50;99.50;;;;;;5080493;28;20508;-95
2022/08/28 09:52:56;;;;;;;10.53;7.90;;;30.50;99.80;;;;;;5078167;28;20417;-94
2022/08/28 09:55:53;;;;;;;11.17;8.13;;;30.50;99.90;;;;;;5078073;28;20467;-94
2022/08/28 09:58:20;;;;;;;11.00;8.47;;;30.50;99.50;;;;;;5078294;28;20413;-94
2022/08/28 10:00:53;;;;;;;8.47;7.63;;;30.60;99.80;;;;;;5078376;28;20451;-94
2022/08/28 10:03:36;;;;;;;10.40;8.07;;;30.60;99.80;;;;;;5078080;28;20807;-94
2022/08/28 10:06:09;;;;;;;9.23;7.80;;;30.60;99.70;;;;;;5078418;28;20448;-94
2022/08/28 10:08:55;;;;;;;9.23;7.83;;;30.70;99.90;;;;;;5080230;28;20411;-94
2022/08/28 10:11:32;;;;;;;9.57;7.70;;;30.70;99.90;;;;;;5071588;28;20495;-94
2022/08/28 10:14:28;;;;;;;11.73;8.17;;;30.80;99.90;;;;;;5078595;28;20419;-94
2022/08/28 10:17:16;;;;;;;11.30;8.10;;;30.80;99.90;;;;;;5078476;28;20468;-94
2022/08/28 10:19:41;;;;;;;11.80;9.00;;;30.90;99.90;;;;;;5079109;28;20960;-94
2022/08/28 10:22:33;;;;;;;11.37;7.77;;;30.90;99.80;;;;;;5079335;28;20496;-94
2022/08/28 10:25:04;;;;;;;11.57;9.57;;;30.90;99.30;;;;;;5079124;28;20750;-94
2022/08/28 10:27:47;;;;;;;11.30;9.23;;;30.90;99.40;;;;;;5079338;28;20416;-94
2022/08/28 10:30:18;;;;;;;11.23;9.03;;;30.90;99.40;;;;;;5079119;28;20490;-94
2022/08/28 10:33:02;;;;;;;12.57;11.37;;;30.90;99.10;;;;;;5079746;28;20913;-94
2022/08/28 10:35:37;;;;;;;16.20;11.27;;;30.90;98.80;;;;;;5079383;28;20463;-93
2022/08/28 10:38:15;;;;;;;12.50;11.07;;;31.00;98.80;;;;;;5078326;28;20415;-94
2022/08/28 10:40:48;;;;;;;10.80;9.70;;;31.00;99.00;;;;;;5078343;28;20456;-94
2022/08/28 10:43:30;;;;;;;11.30;10.10;;;31.00;99.00;;;;;;5096007;28;20413;-93
2022/08/28 10:46:04;;;;;;;14.13;10.40;;;31.00;98.70;;;;;;5077794;28;20459;-94
2022/08/28 10:48:33;;;;;;;14.73;9.90;;;31.10;98.60;;;;;;5077524;28;20826;-95
2022/08/28 10:51:40;;;;;;;14.43;9.37;;;31.10;98.40;;;;;;5078095;28;20485;-94
2022/08/28 10:54:15;;;;;;;15.27;9.30;;;31.20;98.40;;;;;;5078467;28;20767;-93
2022/08/28 10:56:54;;;;;;;14.10;10.00;;;31.20;98.40;;;;;;5081736;28;20464;-95
2022/08/28 10:59:21;;;;;;;12.50;9.63;;;31.20;98.30;;;;;;5095549;28;20482;-93
2022/08/28 11:01:47;;;;;;;14.03;9.33;;;31.20;98.20;;;;;;5094926;28;20496;-94
2022/08/28 11:04:19;;;;;;;15.43;10.00;;;31.20;98.00;;;;;;5077102;28;20467;-94
2022/08/28 11:06:50;;;;;;;11.93;9.23;;;31.30;97.90;;;;;;5076921;28;20427;-94
2022/08/28 11:09:34;;;;;;;12.77;9.23;;;31.30;97.80;;;;;;5077161;28;21011;-94
2022/08/28 11:12:05;;;;;;;10.43;9.33;;;31.40;98.00;;;;;;5080112;28;20462;-93
2022/08/28 11:14:44;;;;;;;9.47;8.47;;;31.40;97.70;;;;;;5077530;28;20452;-94
2022/08/28 11:17:39;;;;;;;12.13;10.57;;;31.40;97.40;;;;;;5077659;28;21071;-94
2022/08/28 11:20:27;;;;;;;9.63;8.70;;;31.40;97.40;;;;;;5077639;28;20444;-94
2022/08/28 11:23:14;;;;;;;11.03;9.77;;;31.50;97.80;;;;;;5077061;28;20737;-94
2022/08/28 11:25:50;;;;;;;13.57;9.30;;;31.50;97.60;;;;;;5077452;28;20481;-94
2022/08/28 11:28:26;;;;;;;12.73;9.90;;;31.50;97.10;;;;;;5077829;28;20408;-95
2022/08/28 11:30:57;;;;;;;12.63;10.50;;;31.50;97.10;;;;;;5077633;28;20576;-94
2022/08/28 11:33:54;;;;;;;10.77;9.67;;;31.60;97.10;;;;;;5077169;28;20421;-93
2022/08/28 11:36:20;;;;;;;12.07;10.80;;;31.70;97.10;;;;;;5091285;28;20564;-94
2022/08/28 11:38:52;;;;;;;12.30;10.57;;;31.70;97.00;;;;;;5077052;28;20409;-93
2022/08/28 11:41:21;;;;;;;15.47;10.10;;;31.80;96.90;;;;;;5078792;28;20433;-92
2022/08/28 11:44:13;;;;;;;11.23;10.23;;;31.80;96.70;;;;;;5079779;28;20969;-94
2022/08/28 11:46:47;;;;;;;11.60;9.80;;;31.80;97.10;;;;;;5059202;28;20425;-94
2022/08/28 11:49:25;;;;;;;11.60;9.57;;;31.90;96.90;;;;;;5079941;28;20453;-95
2022/08/28 11:52:21;;;;;;;12.47;10.07;;;31.90;96.70;;;;;;5089458;28;20415;-94
2022/08/28 11:55:15;;;;;;;11.57;10.37;;;31.90;96.40;;;;;;5084376;28;20461;-93
2022/08/28 11:58:00;;;;;;;11.77;10.53;;;31.90;96.40;;;;;;5097571;28;20440;-94
2022/08/28 12:01:03;;;;;;;20.00;10.27;;;31.90;96.50;;;;;;5083092;28;20501;-95
2022/08/28 12:04:00;;;;;;;10.90;9.90;;;31.90;97.00;;;;;;5091970;28;20436;-95
2022/08/28 12:06:48;;;;;;;12.50;9.60;;;32.00;95.90;;;;;;5084724;28;20447;-95
2022/08/28 12:09:38;;;;;;;13.00;11.33;;;32.00;94.80;;;;;;5078469;28;20682;-94
2022/08/28 12:12:06;;;;;;;10.67;9.70;;;32.00;95.10;;;;;;5078591;28;20413;-94
2022/08/28 12:14:35;;;;;;;12.90;9.80;;;32.10;95.00;;;;;;5079342;28;20878;-95
2022/08/28 12:17:04;;;;;;;11.30;10.20;;;32.20;94.90;;;;;;5078954;28;20557;-95
2022/08/28 12:19:40;;;;;;;17.97;11.40;;;32.20;95.00;;;;;;5078739;28;20505;-94
2022/08/28 12:22:10;;;;;;;13.83;10.97;;;32.30;94.80;;;;;;5079261;28;20420;-94
2022/08/28 12:25:03;;;;;;;11.40;10.30;;;32.30;94.70;;;;;;5080578;28;20498;-94
2022/08/28 12:27:30;;;;;;;11.40;10.20;;;32.30;94.80;;;;;;5080362;28;20918;-93
2022/08/28 12:29:59;;;;;;;11.13;10.10;;;32.30;94.60;;;;;;5080857;28;20456;-95
2022/08/28 12:32:46;;;;;;;11.30;10.10;;;32.30;94.60;;;;;;5081675;28;20421;-95
2022/08/28 12:35:19;;;;;;;14.57;9.90;;;32.30;94.40;;;;;;5080274;28;20457;-95
2022/08/28 12:37:46;;;;;;;12.10;10.50;;;32.30;93.90;;;;;;5080353;28;20778;-95
2022/08/28 12:40:12;;;;;;;13.90;10.77;;;32.30;93.70;;;;;;5080411;28;20481;-94
2022/08/28 12:42:49;;;;;;;12.40;11.30;;;32.30;93.50;;;;;;5080796;28;20424;-94
2022/08/28 12:45:20;;;;;;;15.40;10.47;;;32.20;93.70;;;;;;5083817;28;20463;-94
2022/08/28 12:47:47;;;;;;;12.87;10.43;;;32.20;93.60;;;;;;5086685;28;20416;-94
2022/08/28 12:50:34;;;;;;;12.63;11.40;;;32.20;93.80;;;;;;5080965;28;20487;-94
2022/08/28 12:53:04;;;;;;;14.83;10.70;;;32.10;93.90;;;;;;5079070;28;20474;-95
2022/08/28 12:55:30;;;;;;;15.17;10.97;;;32.10;94.00;;;;;;5079133;28;20501;-94
2022/08/28 12:57:56;;;;;;;14.50;11.07;;;32.10;94.30;;;;;;5097163;28;20409;-94
2022/08/28 13:00:26;;;;;;;18.23;11.03;;;32.00;93.60;;;;;;5079614;28;20456;-94
2022/08/28 13:02:53;;;;;;;10.90;9.87;;;32.00;93.80;;;;;;5079381;28;20416;-94
2022/08/28 13:05:40;;;;;;;12.10;10.20;;;32.00;93.70;;;;;;5079203;28;20437;-94